Johor Bahru, Malaysia
Current Conditions -  °F | °C
As of 6:00 AM on Sunday 26 Oct 2014 (Local Time) from WSSL Reporting Station
Broken Clouds Broken Clouds  
Wind Chill: 81°   Ceiling: 30000
Heat Index: 87°   Visibility: 5mi
Dew Point: 77°   Wind: 0mph
Humidity: 89%   Direction: NA
Pressure: 29.83"   Gusts: NA
Location:  1.48°N, 103.75°E
Report Text: WSSL 252200Z 00000KT 8000 FEW018 BKN300 27/25 Q1010 RMK 2130ZQ1010
Loading
Personal Weather Stations






























Interactive Weather Map
Tropical Storm Tracking
New forecast layout! Learn more

10-Day Weather Forecast

Advertisements
Track Severe Weather on mobile